Time;durP1;ratioP1;P1;durP2;ratioP2;P2;SDS_P1;SDS_P2;PMS_P1;PMS_P2;Temp;Humidity;BMP_temperature;BMP_pressure;BME280_temperature;BME280_humidity;BME280_pressure;Samples;Min_cycle;Max_cycle;Signal;HPM_P1;HPM_P2
2024/01/08 00:00:03;;;;;;;5.78;2.80;;;;;;;;;;5095739;28;20031;-27
2024/01/08 00:02:28;;;;;;;4.03;2.60;;;;;;;;;;5095716;28;20044;-27
2024/01/08 00:04:54;;;;;;;7.20;2.65;;;;;;;;;;5095603;28;20023;-27
2024/01/08 00:07:19;;;;;;;5.10;2.92;;;;;;;;;;5095823;28;20023;-27
2024/01/08 00:09:44;;;;;;;4.95;2.90;;;;;;;;;;5095980;28;20363;-27
2024/01/08 00:12:09;;;;;;;6.47;3.22;;;;;;;;;;5095684;28;20462;-27
2024/01/08 00:14:35;;;;;;;5.93;2.75;;;;;;;;;;5077315;28;20408;-27
2024/01/08 00:17:00;;;;;;;7.93;2.90;;;;;;;;;;5095030;28;20459;-27
2024/01/08 00:19:25;;;;;;;8.00;2.78;;;;;;;;;;5095630;28;20107;-27
2024/01/08 00:21:50;;;;;;;5.25;2.92;;;;;;;;;;5095334;28;20020;-27
2024/01/08 00:24:15;;;;;;;4.28;2.53;;;;;;;;;;5095257;28;20028;-27
2024/01/08 00:26:40;;;;;;;5.53;3.10;;;;;;;;;;5095203;28;20153;-27
2024/01/08 00:29:06;;;;;;;5.95;3.25;;;;;;;;;;5095711;28;20039;-27
2024/01/08 00:31:31;;;;;;;5.32;3.22;;;;;;;;;;5094997;28;20486;-27
2024/01/08 00:33:56;;;;;;;5.35;3.05;;;;;;;;;;5095621;28;20102;-27
2024/01/08 00:36:22;;;;;;;9.57;3.13;;;;;;;;;;5095030;28;20019;-28
2024/01/08 00:38:47;;;;;;;5.35;3.42;;;;;;;;;;5094900;28;20019;-27
2024/01/08 00:41:12;;;;;;;5.88;3.40;;;;;;;;;;5095449;28;20024;-27
2024/01/08 00:43:37;;;;;;;6.40;3.78;;;;;;;;;;5094845;28;20455;-27
2024/01/08 00:46:03;;;;;;;5.40;3.42;;;;;;;;;;5095372;28;20026;-27
2024/01/08 00:48:28;;;;;;;6.55;3.70;;;;;;;;;;5094931;28;20020;-27
2024/01/08 00:50:53;;;;;;;6.78;3.80;;;;;;;;;;5094823;28;20020;-27
2024/01/08 00:53:18;;;;;;;7.53;3.90;;;;;;;;;;5094949;28;20015;-27
2024/01/08 00:55:43;;;;;;;6.32;3.85;;;;;;;;;;5094914;28;20016;-27
2024/01/08 00:58:09;;;;;;;5.95;3.58;;;;;;;;;;5094533;28;20016;-27
2024/01/08 01:00:34;;;;;;;7.38;3.42;;;;;;;;;;5094526;28;20028;-27
2024/01/08 01:02:59;;;;;;;6.95;3.40;;;;;;;;;;5094710;28;20051;-27
2024/01/08 01:05:24;;;;;;;6.20;3.50;;;;;;;;;;5094388;28;20401;-27
2024/01/08 01:07:49;;;;;;;6.78;3.53;;;;;;;;;;5094888;28;20035;-27
2024/01/08 01:10:15;;;;;;;5.53;3.08;;;;;;;;;;5094749;28;20367;-28
2024/01/08 01:12:40;;;;;;;8.05;3.60;;;;;;;;;;5094167;28;20012;-27
2024/01/08 01:15:05;;;;;;;8.15;3.08;;;;;;;;;;5094444;28;20019;-27
2024/01/08 01:17:30;;;;;;;7.70;3.40;;;;;;;;;;5094764;28;20014;-27
2024/01/08 01:19:55;;;;;;;5.22;3.10;;;;;;;;;;5094442;28;20064;-27
2024/01/08 01:22:21;;;;;;;5.78;3.38;;;;;;;;;;5094440;28;20034;-27
2024/01/08 01:24:46;;;;;;;6.85;3.60;;;;;;;;;;5093982;28;20028;-27
2024/01/08 01:27:11;;;;;;;6.82;3.28;;;;;;;;;;5075842;28;20446;-27
2024/01/08 01:29:36;;;;;;;7.68;3.58;;;;;;;;;;5093562;28;20073;-27
2024/01/08 01:32:02;;;;;;;6.15;3.83;;;;;;;;;;5093956;28;20015;-27
2024/01/08 01:34:27;;;;;;;6.40;3.60;;;;;;;;;;5094200;28;20061;-27
2024/01/08 01:36:52;;;;;;;6.72;3.40;;;;;;;;;;5093904;28;20460;-27
2024/01/08 01:39:17;;;;;;;7.90;3.47;;;;;;;;;;5093655;28;20027;-27
2024/01/08 01:41:43;;;;;;;7.40;3.28;;;;;;;;;;5093904;28;20544;-28
2024/01/08 01:44:08;;;;;;;6.68;3.80;;;;;;;;;;5094372;28;20019;-27
2024/01/08 01:46:41;;;;;;;6.45;3.35;;;;;;;;;;5093479;28;20034;-27
2024/01/08 01:49:10;;;;;;;6.18;3.40;;;;;;;;;;5094037;28;20356;-27
2024/01/08 01:51:35;;;;;;;8.82;3.58;;;;;;;;;;5093572;28;20020;-28
2024/01/08 01:54:01;;;;;;;6.65;3.25;;;;;;;;;;5093894;28;20055;-27
2024/01/08 01:56:26;;;;;;;5.85;3.25;;;;;;;;;;5093661;28;20451;-27
2024/01/08 01:58:52;;;;;;;7.10;3.58;;;;;;;;;;5093559;28;20020;-27
2024/01/08 02:01:18;;;;;;;6.60;3.42;;;;;;;;;;5092904;28;20030;-27
2024/01/08 02:03:43;;;;;;;8.18;3.45;;;;;;;;;;5093399;28;20052;-27
2024/01/08 02:06:12;;;;;;;7.15;3.30;;;;;;;;;;5093478;28;20027;-27
2024/01/08 02:08:38;;;;;;;8.30;3.28;;;;;;;;;;5093458;28;20016;-27
2024/01/08 02:11:03;;;;;;;8.30;3.75;;;;;;;;;;5093316;28;20367;-27
2024/01/08 02:13:29;;;;;;;5.35;3.10;;;;;;;;;;5093447;28;20020;-28
2024/01/08 02:15:54;;;;;;;9.23;3.70;;;;;;;;;;5093450;28;20356;-27
2024/01/08 02:18:19;;;;;;;5.95;3.55;;;;;;;;;;5093407;28;20021;-27
2024/01/08 02:20:44;;;;;;;6.45;3.40;;;;;;;;;;5093744;28;20023;-27
2024/01/08 02:23:10;;;;;;;6.30;3.60;;;;;;;;;;5093409;28;20024;-27
2024/01/08 02:25:35;;;;;;;8.43;3.50;;;;;;;;;;5093602;28;20024;-27
2024/01/08 02:28:00;;;;;;;7.10;3.67;;;;;;;;;;5093650;28;20377;-28
2024/01/08 02:30:25;;;;;;;7.40;3.67;;;;;;;;;;5093315;28;20426;-27
2024/01/08 02:32:51;;;;;;;6.88;3.67;;;;;;;;;;5093330;28;20028;-27
2024/01/08 02:35:16;;;;;;;5.72;3.47;;;;;;;;;;5093280;28;20494;-27
2024/01/08 02:37:41;;;;;;;6.05;3.33;;;;;;;;;;5093823;28;20051;-27
2024/01/08 02:40:06;;;;;;;7.15;3.70;;;;;;;;;;5095287;28;20543;-27
2024/01/08 02:42:31;;;;;;;13.52;3.90;;;;;;;;;;5097182;28;20027;-27
2024/01/08 02:44:57;;;;;;;8.23;3.35;;;;;;;;;;5097192;28;20065;-27
2024/01/08 02:47:22;;;;;;;6.55;3.70;;;;;;;;;;5097077;28;20027;-27
2024/01/08 02:49:47;;;;;;;7.05;3.83;;;;;;;;;;5097617;28;20034;-27
2024/01/08 02:52:12;;;;;;;5.55;3.40;;;;;;;;;;5097094;28;20485;-27
2024/01/08 02:54:37;;;;;;;10.10;3.70;;;;;;;;;;5097062;28;20099;-27
2024/01/08 02:57:03;;;;;;;8.95;3.70;;;;;;;;;;5096853;28;20019;-27
2024/01/08 02:59:28;;;;;;;7.93;3.80;;;;;;;;;;5096838;28;20024;-27
2024/01/08 03:01:53;;;;;;;8.70;3.78;;;;;;;;;;5096836;28;20020;-27
2024/01/08 03:04:19;;;;;;;8.02;3.67;;;;;;;;;;5096720;28;20058;-27
2024/01/08 03:06:44;;;;;;;5.22;3.38;;;;;;;;;;5096790;28;20023;-27
2024/01/08 03:09:09;;;;;;;7.68;3.58;;;;;;;;;;5096702;28;20024;-33
2024/01/08 03:11:34;;;;;;;7.38;3.70;;;;;;;;;;5096788;28;20108;-27
2024/01/08 03:14:00;;;;;;;8.95;3.75;;;;;;;;;;5096604;28;20132;-27
2024/01/08 03:16:25;;;;;;;10.25;3.92;;;;;;;;;;5096902;28;20027;-28
2024/01/08 03:18:50;;;;;;;7.50;4.05;;;;;;;;;;5096605;28;20020;-27
2024/01/08 03:21:15;;;;;;;6.75;3.58;;;;;;;;;;5096530;28;20020;-27
2024/01/08 03:23:40;;;;;;;7.93;3.65;;;;;;;;;;5096706;28;20028;-27
2024/01/08 03:26:06;;;;;;;8.35;4.07;;;;;;;;;;5096658;28;20103;-27
2024/01/08 03:28:31;;;;;;;7.25;3.55;;;;;;;;;;5096637;28;20099;-28
2024/01/08 03:30:56;;;;;;;7.10;3.45;;;;;;;;;;5096233;28;20016;-27
2024/01/08 03:33:22;;;;;;;13.07;4.03;;;;;;;;;;5096790;28;20027;-28
2024/01/08 03:35:47;;;;;;;6.68;3.88;;;;;;;;;;5096281;28;20506;-27
2024/01/08 03:38:12;;;;;;;7.47;4.05;;;;;;;;;;5096197;28;20020;-27
2024/01/08 03:40:37;;;;;;;8.10;4.00;;;;;;;;;;5094960;28;20020;-27
2024/01/08 03:43:02;;;;;;;9.50;3.47;;;;;;;;;;5095820;28;20393;-27
2024/01/08 03:45:28;;;;;;;6.65;3.53;;;;;;;;;;5077953;28;20107;-27
2024/01/08 03:47:53;;;;;;;9.55;3.97;;;;;;;;;;5096306;28;20069;-27
2024/01/08 03:50:18;;;;;;;8.57;3.85;;;;;;;;;;5095804;28;20539;-28
2024/01/08 03:52:43;;;;;;;8.23;3.90;;;;;;;;;;5095256;28;20016;-28
2024/01/08 03:55:09;;;;;;;8.35;3.85;;;;;;;;;;5095843;28;20020;-27
2024/01/08 03:57:35;;;;;;;7.82;4.00;;;;;;;;;;5095986;28;20019;-27
2024/01/08 04:00:00;;;;;;;7.72;4.03;;;;;;;;;;5095999;28;20024;-27
2024/01/08 04:02:25;;;;;;;8.50;3.70;;;;;;;;;;5095503;28;20395;-27
2024/01/08 04:04:50;;;;;;;9.80;3.75;;;;;;;;;;5095895;28;20379;-27
2024/01/08 04:07:16;;;;;;;9.43;4.25;;;;;;;;;;5095581;28;20024;-27
2024/01/08 04:09:41;;;;;;;7.13;3.80;;;;;;;;;;5095764;28;20032;-28
2024/01/08 04:12:06;;;;;;;7.50;4.00;;;;;;;;;;5095492;28;20116;-27
2024/01/08 04:14:31;;;;;;;8.20;4.10;;;;;;;;;;5096052;28;20023;-27
2024/01/08 04:16:57;;;;;;;8.50;3.95;;;;;;;;;;5095473;28;20008;-27
2024/01/08 04:19:22;;;;;;;11.55;4.72;;;;;;;;;;5095396;28;20020;-27
2024/01/08 04:21:47;;;;;;;9.38;3.83;;;;;;;;;;5095918;28;20118;-28
2024/01/08 04:24:13;;;;;;;7.38;4.18;;;;;;;;;;5095901;28;20051;-28
2024/01/08 04:26:38;;;;;;;13.05;4.05;;;;;;;;;;5077092;28;20446;-27
2024/01/08 04:29:04;;;;;;;11.27;4.25;;;;;;;;;;5095170;28;20047;-27
2024/01/08 04:31:31;;;;;;;7.63;3.90;;;;;;;;;;5095131;28;20027;-27
2024/01/08 04:33:56;;;;;;;7.35;4.10;;;;;;;;;;5095061;28;20020;-27
2024/01/08 04:36:21;;;;;;;9.10;3.97;;;;;;;;;;5095288;28;20077;-27
2024/01/08 04:38:46;;;;;;;9.23;4.20;;;;;;;;;;5095276;28;20379;-27
2024/01/08 04:41:21;;;;;;;7.28;3.65;;;;;;;;;;5095298;28;20463;-27
2024/01/08 04:43:47;;;;;;;8.43;4.03;;;;;;;;;;5076747;28;20102;-27
2024/01/08 04:46:12;;;;;;;10.32;4.50;;;;;;;;;;5094849;28;20073;-27
2024/01/08 04:48:37;;;;;;;8.00;3.97;;;;;;;;;;5094857;28;20099;-27
2024/01/08 04:51:02;;;;;;;9.88;4.20;;;;;;;;;;5094649;28;20023;-27
2024/01/08 04:53:28;;;;;;;9.10;4.40;;;;;;;;;;5094660;28;20020;-27
2024/01/08 04:55:53;;;;;;;11.18;4.80;;;;;;;;;;5095229;28;20020;-27
2024/01/08 04:58:18;;;;;;;8.05;4.40;;;;;;;;;;5094529;28;20020;-27
2024/01/08 05:00:43;;;;;;;7.35;4.25;;;;;;;;;;5095059;28;20052;-27
2024/01/08 05:03:09;;;;;;;8.52;4.72;;;;;;;;;;5093589;28;20385;-27
2024/01/08 05:05:34;;;;;;;7.10;4.35;;;;;;;;;;5094725;28;20020;-30
2024/01/08 05:07:59;;;;;;;9.70;4.63;;;;;;;;;;5095020;28;20012;-27
2024/01/08 05:10:25;;;;;;;8.05;4.60;;;;;;;;;;5094908;28;20107;-27
2024/01/08 05:12:50;;;;;;;9.27;4.57;;;;;;;;;;5094336;28;20379;-27
2024/01/08 05:15:15;;;;;;;12.43;4.82;;;;;;;;;;5094302;28;20490;-27
2024/01/08 05:17:40;;;;;;;11.35;4.80;;;;;;;;;;5094819;28;20019;-28
2024/01/08 05:20:06;;;;;;;9.45;5.18;;;;;;;;;;5094453;28;20400;-27
2024/01/08 05:22:31;;;;;;;10.20;5.22;;;;;;;;;;5094693;28;20023;-27
2024/01/08 05:24:56;;;;;;;10.63;5.05;;;;;;;;;;5094365;28;20061;-27
2024/01/08 05:27:22;;;;;;;11.85;4.70;;;;;;;;;;5094332;28;20099;-27
2024/01/08 05:29:47;;;;;;;10.43;4.90;;;;;;;;;;5094543;28;20016;-27
2024/01/08 05:32:12;;;;;;;10.90;4.80;;;;;;;;;;5094492;28;20113;-27
2024/01/08 05:34:37;;;;;;;8.93;4.53;;;;;;;;;;5093979;28;20012;-27
2024/01/08 05:37:02;;;;;;;14.45;5.50;;;;;;;;;;5093949;28;20024;-27
2024/01/08 05:39:28;;;;;;;9.60;4.72;;;;;;;;;;5093922;28;20020;-27
2024/01/08 05:41:53;;;;;;;10.68;4.95;;;;;;;;;;5093835;28;20020;-26
2024/01/08 05:44:18;;;;;;;9.07;4.88;;;;;;;;;;5093717;28;20122;-27
2024/01/08 05:46:43;;;;;;;8.65;5.00;;;;;;;;;;5075612;28;20020;-27
2024/01/08 05:49:09;;;;;;;9.10;5.32;;;;;;;;;;5093970;28;20379;-26
2024/01/08 05:51:34;;;;;;;11.85;5.50;;;;;;;;;;5093637;28;20383;-27
2024/01/08 05:53:59;;;;;;;9.73;5.40;;;;;;;;;;5093924;28;20051;-27
2024/01/08 05:56:25;;;;;;;10.67;5.03;;;;;;;;;;5093660;28;20431;-27
2024/01/08 05:58:50;;;;;;;10.88;5.65;;;;;;;;;;5094197;28;20261;-26
2024/01/08 06:01:17;;;;;;;12.98;5.35;;;;;;;;;;5093802;28;20375;-27
2024/01/08 06:03:42;;;;;;;9.45;5.22;;;;;;;;;;5093482;28;20490;-31
2024/01/08 06:06:07;;;;;;;9.65;5.05;;;;;;;;;;5094166;28;20023;-27
2024/01/08 06:08:32;;;;;;;10.97;5.00;;;;;;;;;;5093538;28;20424;-27
2024/01/08 06:10:58;;;;;;;10.70;5.00;;;;;;;;;;5093354;28;20380;-27
2024/01/08 06:13:23;;;;;;;10.85;5.38;;;;;;;;;;5093707;28;20044;-26
2024/01/08 06:15:48;;;;;;;9.65;4.82;;;;;;;;;;5099125;28;20019;-27
2024/01/08 06:18:14;;;;;;;11.60;5.80;;;;;;;;;;5100193;28;20526;-26
2024/01/08 06:20:39;;;;;;;11.65;5.30;;;;;;;;;;5100499;28;20072;-26
2024/01/08 06:23:04;;;;;;;9.40;5.40;;;;;;;;;;5100108;28;20482;-27
2024/01/08 06:25:29;;;;;;;10.30;5.18;;;;;;;;;;5101138;28;20118;-27
2024/01/08 06:27:55;;;;;;;10.68;5.40;;;;;;;;;;5100338;28;20047;-27
2024/01/08 06:30:20;;;;;;;10.23;5.07;;;;;;;;;;5100489;28;20016;-27
2024/01/08 06:32:45;;;;;;;11.50;5.03;;;;;;;;;;5100593;28;20012;-27
2024/01/08 06:35:10;;;;;;;9.93;5.33;;;;;;;;;;5081830;28;20027;-27
2024/01/08 06:37:35;;;;;;;10.75;5.50;;;;;;;;;;5100026;28;20250;-27
2024/01/08 06:40:01;;;;;;;11.60;5.78;;;;;;;;;;5100547;28;20165;-28
2024/01/08 06:42:26;;;;;;;10.05;4.97;;;;;;;;;;5100495;28;20017;-27
2024/01/08 06:44:51;;;;;;;12.57;5.20;;;;;;;;;;5100443;28;20080;-27
2024/01/08 06:47:17;;;;;;;9.50;5.30;;;;;;;;;;5099923;28;20027;-28
2024/01/08 06:49:42;;;;;;;9.00;4.95;;;;;;;;;;5100124;28;20258;-27
2024/01/08 06:52:08;;;;;;;11.23;5.22;;;;;;;;;;5099799;28;20050;-27
2024/01/08 06:54:34;;;;;;;10.57;5.10;;;;;;;;;;5100095;28;20035;-27
2024/01/08 06:56:59;;;;;;;11.38;5.07;;;;;;;;;;5100185;28;20043;-27
2024/01/08 06:59:24;;;;;;;10.52;5.22;;;;;;;;;;5099872;28;20384;-27
2024/01/08 07:01:51;;;;;;;9.75;4.97;;;;;;;;;;5098101;28;20032;-27
2024/01/08 07:04:17;;;;;;;11.35;5.25;;;;;;;;;;5097939;28;20075;-27
2024/01/08 07:06:42;;;;;;;9.52;4.90;;;;;;;;;;5099104;28;20024;-27
2024/01/08 07:09:07;;;;;;;9.02;4.90;;;;;;;;;;5099681;28;20055;-28
2024/01/08 07:11:32;;;;;;;10.18;4.75;;;;;;;;;;5099339;28;20012;-27
2024/01/08 07:13:58;;;;;;;7.97;4.50;;;;;;;;;;5099875;28;20027;-27
2024/01/08 07:16:24;;;;;;;11.88;5.10;;;;;;;;;;5099846;28;20019;-27
2024/01/08 07:18:50;;;;;;;7.55;4.65;;;;;;;;;;5099851;28;20103;-27
2024/01/08 07:21:16;;;;;;;12.73;5.20;;;;;;;;;;5099433;28;20428;-27
2024/01/08 07:23:42;;;;;;;11.02;4.55;;;;;;;;;;5099540;28;20119;-26
2024/01/08 07:26:08;;;;;;;10.57;4.45;;;;;;;;;;5096384;28;20085;-27
2024/01/08 07:28:33;;;;;;;10.90;3.88;;;;;;;;;;5095902;28;20020;-27
2024/01/08 07:31:00;;;;;;;7.22;4.10;;;;;;;;;;5096119;28;20179;-27
2024/01/08 07:33:26;;;;;;;8.18;4.20;;;;;;;;;;5096578;28;20016;-27
2024/01/08 07:35:51;;;;;;;8.10;4.05;;;;;;;;;;5096177;28;20092;-27
2024/01/08 07:38:16;;;;;;;6.25;3.67;;;;;;;;;;5095917;28;20040;-27
2024/01/08 07:40:41;;;;;;;7.25;3.70;;;;;;;;;;5095849;28;20028;-28
2024/01/08 07:43:06;;;;;;;8.63;3.78;;;;;;;;;;5094708;28;20024;-27
2024/01/08 07:45:32;;;;;;;7.10;3.75;;;;;;;;;;5095925;28;20077;-27
2024/01/08 07:47:57;;;;;;;7.60;3.53;;;;;;;;;;5096343;28;20020;-27
2024/01/08 07:50:22;;;;;;;6.93;3.63;;;;;;;;;;5095890;28;20486;-27
2024/01/08 07:52:47;;;;;;;7.35;3.50;;;;;;;;;;5095897;28;20040;-27
2024/01/08 07:55:13;;;;;;;11.15;4.00;;;;;;;;;;5096400;28;20095;-27
2024/01/08 07:57:38;;;;;;;6.05;3.40;;;;;;;;;;5096098;28;20486;-27
2024/01/08 08:00:06;;;;;;;6.60;3.05;;;;;;;;;;5096297;28;20016;-27
2024/01/08 08:02:31;;;;;;;8.35;3.63;;;;;;;;;;5095712;28;20040;-27
2024/01/08 08:04:56;;;;;;;8.00;3.20;;;;;;;;;;5095704;28;20352;-27
2024/01/08 08:07:21;;;;;;;9.15;3.75;;;;;;;;;;5095947;28;20012;-27
2024/01/08 08:09:47;;;;;;;7.82;3.55;;;;;;;;;;5095517;28;20027;-27
2024/01/08 08:12:12;;;;;;;6.10;3.20;;;;;;;;;;5095421;28;20022;-27
2024/01/08 08:14:37;;;;;;;5.63;3.38;;;;;;;;;;5096116;28;20012;-28
2024/01/08 08:17:05;;;;;;;6.65;3.25;;;;;;;;;;5095706;28;20053;-27
2024/01/08 08:19:31;;;;;;;7.10;3.67;;;;;;;;;;5095712;28;20024;-27
2024/01/08 08:21:56;;;;;;;8.05;3.78;;;;;;;;;;5095937;28;20031;-27
2024/01/08 08:24:21;;;;;;;11.93;4.07;;;;;;;;;;5095338;28;20478;-27
2024/01/08 08:26:47;;;;;;;5.57;3.03;;;;;;;;;;5077164;28;20028;-28
2024/01/08 08:29:12;;;;;;;5.22;2.92;;;;;;;;;;5095126;28;20027;-27
2024/01/08 08:31:37;;;;;;;5.75;3.35;;;;;;;;;;5095089;28;20082;-28
2024/01/08 08:34:02;;;;;;;6.57;3.50;;;;;;;;;;5095177;28;20017;-27
2024/01/08 08:36:27;;;;;;;6.45;3.25;;;;;;;;;;5095061;28;20265;-26
2024/01/08 08:38:52;;;;;;;7.93;3.47;;;;;;;;;;5095382;28;20031;-30
2024/01/08 08:41:19;;;;;;;6.40;3.67;;;;;;;;;;5095517;28;20056;-27
2024/01/08 08:43:44;;;;;;;5.97;3.40;;;;;;;;;;5094900;28;20334;-26
2024/01/08 08:46:09;;;;;;;7.22;3.55;;;;;;;;;;5095460;28;20016;-27
2024/01/08 08:48:34;;;;;;;7.53;4.00;;;;;;;;;;5094852;28;20016;-27
2024/01/08 08:51:00;;;;;;;7.03;3.70;;;;;;;;;;5076586;28;20016;-27
2024/01/08 08:53:25;;;;;;;6.22;3.35;;;;;;;;;;5094794;28;20034;-26
2024/01/08 08:55:52;;;;;;;9.65;3.65;;;;;;;;;;5094632;28;20027;-27
2024/01/08 08:58:17;;;;;;;6.53;3.53;;;;;;;;;;5094942;28;20378;-27
2024/01/08 09:00:42;;;;;;;5.70;3.35;;;;;;;;;;5094881;28;20016;-27
2024/01/08 09:03:07;;;;;;;5.93;3.22;;;;;;;;;;5094574;28;20406;-27
2024/01/08 09:05:32;;;;;;;8.52;3.92;;;;;;;;;;5094462;28;20023;-27
2024/01/08 09:07:58;;;;;;;9.33;3.63;;;;;;;;;;5094646;28;20031;-27
2024/01/08 09:10:23;;;;;;;6.70;3.72;;;;;;;;;;5094332;28;20365;-26
2024/01/08 09:12:48;;;;;;;7.15;3.90;;;;;;;;;;5094580;28;20044;-27
2024/01/08 09:15:13;;;;;;;7.53;4.13;;;;;;;;;;5094264;28;20020;-27
2024/01/08 09:17:39;;;;;;;7.55;3.90;;;;;;;;;;5094191;28;20020;-27
2024/01/08 09:20:05;;;;;;;8.30;3.70;;;;;;;;;;5094789;28;20012;-27
2024/01/08 09:22:30;;;;;;;5.82;3.30;;;;;;;;;;5094482;28;20077;-29
2024/01/08 09:24:55;;;;;;;7.57;3.55;;;;;;;;;;5094097;28;20431;-27
2024/01/08 09:27:21;;;;;;;6.75;3.20;;;;;;;;;;5094091;28;20031;-27
2024/01/08 09:29:46;;;;;;;8.40;4.10;;;;;;;;;;5094090;28;20486;-27
2024/01/08 09:32:11;;;;;;;6.82;3.53;;;;;;;;;;5094067;28;20049;-27
2024/01/08 09:34:36;;;;;;;9.15;3.60;;;;;;;;;;5094242;28;20371;-27
2024/01/08 09:37:02;;;;;;;8.73;4.20;;;;;;;;;;5094050;28;20024;-27
2024/01/08 09:39:27;;;;;;;8.15;3.78;;;;;;;;;;5093861;28;20016;-27
2024/01/08 09:41:54;;;;;;;8.75;3.92;;;;;;;;;;5094146;28;20024;-27
2024/01/08 09:44:19;;;;;;;6.55;3.58;;;;;;;;;;5094092;28;20111;-27
2024/01/08 09:46:47;;;;;;;8.02;4.07;;;;;;;;;;5093749;28;20052;-26
2024/01/08 09:49:13;;;;;;;6.28;3.50;;;;;;;;;;5093424;28;20500;-27
2024/01/08 09:51:40;;;;;;;7.88;4.25;;;;;;;;;;5093877;28;20013;-27
2024/01/08 09:54:06;;;;;;;7.80;4.15;;;;;;;;;;5093678;28;20026;-26
2024/01/08 09:56:31;;;;;;;9.88;4.47;;;;;;;;;;5094187;28;20111;-27
2024/01/08 09:58:56;;;;;;;7.50;3.85;;;;;;;;;;5093953;28;20100;-27
2024/01/08 10:01:21;;;;;;;9.70;4.27;;;;;;;;;;5093535;28;20382;-27
2024/01/08 10:03:47;;;;;;;9.52;4.20;;;;;;;;;;5093589;28;20292;-27
2024/01/08 10:06:12;;;;;;;8.55;4.30;;;;;;;;;;5093786;28;20108;-27
2024/01/08 10:08:37;;;;;;;7.90;4.35;;;;;;;;;;5093798;28;20416;-27
2024/01/08 10:11:03;;;;;;;7.63;3.50;;;;;;;;;;5093311;28;20020;-27
2024/01/08 10:13:28;;;;;;;7.78;4.15;;;;;;;;;;5093451;28;20094;-27
2024/01/08 10:15:53;;;;;;;10.27;4.53;;;;;;;;;;5093663;28;20044;-26
2024/01/08 10:18:19;;;;;;;8.20;4.00;;;;;;;;;;5093981;28;20069;-27
2024/01/08 10:20:47;;;;;;;8.43;4.50;;;;;;;;;;5093340;28;20736;-27
2024/01/08 10:23:16;;;;;;;8.63;4.53;;;;;;;;;;5093832;28;20379;-27
2024/01/08 10:25:48;;;;;;;8.77;4.43;;;;;;;;;;5093550;28;20077;-27
2024/01/08 10:28:13;;;;;;;7.63;4.00;;;;;;;;;;5093861;28;20159;-27
2024/01/08 10:30:40;;;;;;;8.52;4.22;;;;;;;;;;5093062;28;20051;-26
2024/01/08 10:33:07;;;;;;;9.60;4.07;;;;;;;;;;5093307;28;20099;-27
2024/01/08 10:35:32;;;;;;;8.00;4.10;;;;;;;;;;5093839;28;20107;-27
2024/01/08 10:38:00;;;;;;;7.68;4.07;;;;;;;;;;5093527;28;20428;-27
2024/01/08 10:40:28;;;;;;;6.93;3.67;;;;;;;;;;5093186;28;20032;-27
2024/01/08 10:42:53;;;;;;;7.50;4.18;;;;;;;;;;5093158;28;20467;-27
2024/01/08 10:45:18;;;;;;;8.48;4.05;;;;;;;;;;5093341;28;20020;-27
2024/01/08 10:47:49;;;;;;;8.00;4.13;;;;;;;;;;5093111;28;20050;-27
2024/01/08 10:50:17;;;;;;;42.95;4.50;;;;;;;;;;5093305;28;20024;-27
2024/01/08 10:52:47;;;;;;;8.30;3.97;;;;;;;;;;5093114;28;20040;-26
2024/01/08 10:55:13;;;;;;;6.93;4.30;;;;;;;;;;5093628;28;20020;-27
2024/01/08 10:57:42;;;;;;;10.13;3.88;;;;;;;;;;5093345;28;20077;-27
2024/01/08 11:00:09;;;;;;;10.52;4.25;;;;;;;;;;5093319;28;20024;-27
2024/01/08 11:02:37;;;;;;;8.45;4.03;;;;;;;;;;5095413;28;20036;-27
2024/01/08 11:05:03;;;;;;;7.32;4.20;;;;;;;;;;5097099;28;20395;-27
2024/01/08 11:07:33;;;;;;;7.82;3.70;;;;;;;;;;5096773;28;20015;-27
2024/01/08 11:10:03;;;;;;;8.70;3.80;;;;;;;;;;5097232;28;20501;-27
2024/01/08 11:12:28;;;;;;;8.40;3.85;;;;;;;;;;5097195;28;20518;-27
2024/01/08 11:15:00;;;;;;;7.05;3.60;;;;;;;;;;5096624;28;20055;-26
2024/01/08 11:17:28;;;;;;;8.95;3.75;;;;;;;;;;5097084;28;20020;-27
2024/01/08 11:19:55;;;;;;;6.03;3.72;;;;;;;;;;5096870;28;20016;-27
2024/01/08 11:22:20;;;;;;;6.97;3.63;;;;;;;;;;5096772;28;20099;-27
2024/01/08 11:24:46;;;;;;;7.30;3.97;;;;;;;;;;5096471;28;20054;-27
2024/01/08 11:27:11;;;;;;;8.85;3.90;;;;;;;;;;5096424;28;20391;-28
2024/01/08 11:29:36;;;;;;;8.15;3.83;;;;;;;;;;5096394;28;20072;-28
2024/01/08 11:32:11;;;;;;;7.18;4.00;;;;;;;;;;5096479;28;20024;-27
2024/01/08 11:34:39;;;;;;;7.72;3.75;;;;;;;;;;5096554;28;20020;-27
2024/01/08 11:37:04;;;;;;;6.65;3.78;;;;;;;;;;5096245;28;20482;-27
2024/01/08 11:39:34;;;;;;;7.85;3.50;;;;;;;;;;5096268;28;20020;-27
2024/01/08 11:41:59;;;;;;;4.93;3.17;;;;;;;;;;5096230;28;20055;-27
2024/01/08 11:44:25;;;;;;;6.95;3.60;;;;;;;;;;5096132;28;20108;-27
2024/01/08 11:46:50;;;;;;;9.50;3.70;;;;;;;;;;5096079;28;20028;-27
2024/01/08 11:49:16;;;;;;;5.53;3.38;;;;;;;;;;5096059;28;20024;-27
2024/01/08 11:51:44;;;;;;;5.90;3.75;;;;;;;;;;5095851;28;20051;-28
2024/01/08 11:54:12;;;;;;;6.63;3.67;;;;;;;;;;5095958;28;20455;-28
2024/01/08 11:56:37;;;;;;;6.70;3.70;;;;;;;;;;5095901;28;20478;-27
2024/01/08 11:59:02;;;;;;;5.68;3.58;;;;;;;;;;5096112;28;20095;-27
2024/01/08 12:01:28;;;;;;;6.55;3.45;;;;;;;;;;5096334;28;20058;-28
2024/01/08 12:03:59;;;;;;;5.65;3.45;;;;;;;;;;5095584;28;20120;-27
2024/01/08 12:06:26;;;;;;;8.40;3.72;;;;;;;;;;5095904;28;20135;-27
2024/01/08 12:08:53;;;;;;;7.45;3.88;;;;;;;;;;5095894;28;20066;-27
2024/01/08 12:11:18;;;;;;;6.57;3.65;;;;;;;;;;5095693;28;20038;-27
2024/01/08 12:13:43;;;;;;;6.22;3.42;;;;;;;;;;5095053;28;20459;-27
2024/01/08 12:16:09;;;;;;;7.95;4.03;;;;;;;;;;5095397;28;20073;-27
2024/01/08 12:18:35;;;;;;;8.00;4.10;;;;;;;;;;5095447;28;20028;-27
2024/01/08 12:21:00;;;;;;;6.35;3.75;;;;;;;;;;5095409;28;20051;-28
2024/01/08 12:23:26;;;;;;;6.00;3.53;;;;;;;;;;5095561;28;20035;-27
2024/01/08 12:25:52;;;;;;;10.15;4.30;;;;;;;;;;5095294;28;20497;-27
2024/01/08 12:28:17;;;;;;;6.40;3.25;;;;;;;;;;5095815;28;20035;-27
2024/01/08 12:30:43;;;;;;;8.80;3.60;;;;;;;;;;5095091;28;20016;-27
2024/01/08 12:33:08;;;;;;;8.18;3.83;;;;;;;;;;5095405;28;20019;-27
2024/01/08 12:35:36;;;;;;;6.90;3.90;;;;;;;;;;5096095;28;20016;-27
2024/01/08 12:38:01;;;;;;;9.27;3.78;;;;;;;;;;5095038;28;20319;-28
2024/01/08 12:40:28;;;;;;;8.77;3.80;;;;;;;;;;5094934;28;20074;-28
2024/01/08 12:42:53;;;;;;;7.65;4.18;;;;;;;;;;5094897;28;20482;-28
2024/01/08 12:45:18;;;;;;;7.03;3.55;;;;;;;;;;5095450;28;20027;-28
2024/01/08 12:47:43;;;;;;;6.35;3.28;;;;;;;;;;5094827;28;20031;-28
2024/01/08 12:50:10;;;;;;;5.70;3.60;;;;;;;;;;5094753;28;20027;-27
2024/01/08 12:52:35;;;;;;;7.60;3.78;;;;;;;;;;5095040;28;20020;-27
2024/01/08 12:55:00;;;;;;;6.67;3.93;;;;;;;;;;5076540;28;20447;-27
2024/01/08 12:57:29;;;;;;;6.83;3.80;;;;;;;;;;5095041;28;20307;-27
2024/01/08 12:59:55;;;;;;;7.35;3.45;;;;;;;;;;5094581;28;20290;-27
2024/01/08 13:02:22;;;;;;;6.80;3.55;;;;;;;;;;5094526;28;20475;-28
2024/01/08 13:04:47;;;;;;;6.78;3.20;;;;;;;;;;5076447;28;20086;-28
2024/01/08 13:07:12;;;;;;;9.07;3.63;;;;;;;;;;5093676;28;20043;-28
2024/01/08 13:09:40;;;;;;;5.43;3.60;;;;;;;;;;5094036;28;20023;-28
2024/01/08 13:12:07;;;;;;;5.50;3.72;;;;;;;;;;5076704;28;20418;-28
2024/01/08 13:14:33;;;;;;;5.93;3.70;;;;;;;;;;5094376;28;20020;-28
2024/01/08 13:17:00;;;;;;;7.45;3.60;;;;;;;;;;5094423;28;20016;-28
2024/01/08 13:19:31;;;;;;;5.35;3.75;;;;;;;;;;5094096;28;20020;-27
2024/01/08 13:21:57;;;;;;;6.43;3.60;;;;;;;;;;5094581;28;20031;-28
2024/01/08 13:24:23;;;;;;;7.47;4.28;;;;;;;;;;5092665;28;20028;-28
2024/01/08 13:26:49;;;;;;;7.45;4.00;;;;;;;;;;5076049;28;20379;-28
2024/01/08 13:29:14;;;;;;;6.97;3.67;;;;;;;;;;5094484;28;20040;-28
2024/01/08 13:31:40;;;;;;;6.95;3.80;;;;;;;;;;5094106;28;20059;-28
2024/01/08 13:34:08;;;;;;;6.95;4.05;;;;;;;;;;5094074;28;20020;-27
2024/01/08 13:36:33;;;;;;;7.57;3.88;;;;;;;;;;5075859;28;20016;-27
2024/01/08 13:39:01;;;;;;;7.80;3.67;;;;;;;;;;5094296;28;20016;-27
2024/01/08 13:41:28;;;;;;;6.53;3.53;;;;;;;;;;5094123;28;20103;-28
2024/01/08 13:43:53;;;;;;;7.97;3.33;;;;;;;;;;5093798;28;20055;-27
2024/01/08 13:46:18;;;;;;;7.40;3.40;;;;;;;;;;5093919;28;20027;-27
2024/01/08 13:48:44;;;;;;;9.35;3.55;;;;;;;;;;5093863;28;20028;-28
2024/01/08 13:51:10;;;;;;;9.13;3.55;;;;;;;;;;5094274;28;20055;-27
2024/01/08 13:53:36;;;;;;;6.15;3.30;;;;;;;;;;5094104;28;20455;-28
2024/01/08 13:56:03;;;;;;;7.78;3.58;;;;;;;;;;5093546;28;20016;-27
2024/01/08 13:58:29;;;;;;;9.73;3.90;;;;;;;;;;5093991;28;20157;-28
2024/01/08 14:00:55;;;;;;;5.50;3.40;;;;;;;;;;5093798;28;20466;-28
2024/01/08 14:03:20;;;;;;;8.60;3.45;;;;;;;;;;5075492;28;20410;-27
2024/01/08 14:05:46;;;;;;;7.60;3.67;;;;;;;;;;5093761;28;20379;-28
2024/01/08 14:08:12;;;;;;;6.03;3.83;;;;;;;;;;5093691;28;20031;-28
2024/01/08 14:10:38;;;;;;;10.30;3.70;;;;;;;;;;5094170;28;20026;-28
2024/01/08 14:13:04;;;;;;;9.25;3.92;;;;;;;;;;5075428;28;20107;-27
2024/01/08 14:15:29;;;;;;;6.95;2.90;;;;;;;;;;5093564;28;20023;-27
2024/01/08 14:17:56;;;;;;;9.02;3.15;;;;;;;;;;5093607;28;20016;-28
2024/01/08 14:20:22;;;;;;;6.30;3.15;;;;;;;;;;5093587;28;20020;-28
2024/01/08 14:22:47;;;;;;;7.93;2.88;;;;;;;;;;5093496;28;20020;-26
2024/01/08 14:25:13;;;;;;;5.63;2.50;;;;;;;;;;5093421;28;20028;-28
2024/01/08 14:27:44;;;;;;;6.90;2.80;;;;;;;;;;5075467;28;20020;-28
2024/01/08 14:30:09;;;;;;;5.40;2.83;;;;;;;;;;5093274;28;20031;-28